• Join FlightAware (Why Join?)
  • Login
  • US Flag 
08:38AM EDT


 

Airport Tracker/Info


-or-


 

Live Flight TrackerFlight Track Log ✈ UAL5848 ✈ 12-Apr-2013 ✈ KORD - KTYS

Flight Track Log - Related Links

Times and Time Zones

All times are in EDT time to prevent confusion due to time zone crossing. See the UAL5848 flight status page for this flight to view local times or setup timezone preferences in your user account.

Time Position Orientation Groundspeed Altitude Reporting Facility
EDT Latitude Longitude Course Direction KTS MPH feet Rate Location/Type
06:24PM 41.9000 -87.9000 173° South 222 255 3,600  Level Chicago TRACON
06:26PM 41.7442 -87.8108 157° South 284 327 9,200 2,460 Climbing Chicago Center
06:27PM 41.6678 -87.7539 151° Southeast 308 354 12,100 2,460 Climbing Chicago Center
06:28PM 41.5733 -87.6842 151° Southeast 322 371 14,300 1,620 Climbing Chicago Center
06:29PM 41.3280 -87.4539 173° South  Level Estimated
06:30PM 41.4831 -87.6161 151° Southeast 365 420 15,500  Level Chicago Center
06:31PM 41.3831 -87.5656 159° South 389 448 16,900 1,440 Climbing Chicago Center
06:32PM 41.2758 -87.5472 173° South 387 445 18,500 1,500 Climbing Chicago Center
06:33PM 41.1661 -87.5244 171° South 394 453 20,000 1,440 Climbing Chicago Center
06:34PM 41.0561 -87.4947 168° South 401 461 21,500 1,560 Climbing Chicago Center
06:35PM 40.9222 -87.4592 169° South 410 472 23,300 1,560 Climbing Chicago Center
06:36PM 40.8117 -87.4292 168° South 408 470 24,800 1,440 Climbing Chicago Center
06:37PM 40.7014 -87.3997 169° South 406 467 26,300 1,440 Climbing Chicago Center
06:38PM 40.5908 -87.3708 169° South 406 467 27,800 1,440 Climbing Chicago Center
06:39PM 40.4800 -87.3428 169° South 407 468 29,300 1,020 Climbing Chicago Center
06:40PM 40.3797 -87.2667 150° Southeast 430 495 30,000 780 Climbing Chicago Center
06:41PM 40.2592 -87.1533 144° Southeast 448 516 31,000 960 Climbing Chicago Center
06:42PM 40.1569 -87.0597 145° Southeast 452 520 32,000 960 Climbing Chicago Center
06:43PM 40.1011 -87.0083 145° Southeast 449 517 32,600 600 Climbing Indianapolis Center
06:44PM 39.9922 -86.9258 150° Southeast 450 518 33,000 180 Climbing Indianapolis Center
06:45PM 39.8806 -86.8425 150° Southeast 457 526 33,000  Level Indianapolis Center
06:46PM 39.7664 -86.7578 150° Southeast 464 534 33,000  Level Indianapolis Center
06:47PM 39.6283 -86.6550 150° Southeast 471 542 33,000  Level Indianapolis Center
06:48PM 39.5136 -86.5700 150° Southeast 472 543 33,000  Level Indianapolis Center
06:49PM 39.3978 -86.4869 151° Southeast 472 543 33,000  Level Indianapolis Center
06:50PM 39.2822 -86.4008 150° Southeast 474 545 33,000  Level Indianapolis Center
06:51PM 39.1664 -86.3156 150° Southeast 475 547 33,000  Level Indianapolis Center
06:52PM 39.0525 -86.2336 151° Southeast 469 540 33,000 360 Level Indianapolis Center
06:53PM 38.9408 -86.1514 150° Southeast 464 534 33,800 840 Climbing Indianapolis Center
06:54PM 38.8306 -86.0717 151° Southeast 457 526 34,800 540 Climbing Indianapolis Center
06:55PM 38.7208 -85.9933 151° Southeast 448 516 35,000 60 Climbing Indianapolis Center
06:56PM 38.5850 -85.8964 151° Southeast 460 529 35,000  Level Indianapolis Center
06:57PM 38.4728 -85.8158 151° Southeast 459 528 35,000  Level Indianapolis Center
06:58PM 38.3567 -85.7333 151° Southeast 469 540 35,000  Level Indianapolis Center
06:59PM 38.2439 -85.6539 151° Southeast 462 532 35,000  Level Indianapolis Center
07:00PM 38.1328 -85.5753 151° Southeast 456 525 35,000 -480 Level Indianapolis Center
07:01PM 38.0203 -85.4958 151° Southeast 456 525 34,100 -960 Descending Indianapolis Center
07:02PM 37.9097 -85.4192 151° Southeast 451 519 33,100 -1,200 Descending Indianapolis Center
07:03PM 37.7903 -85.3331 150° Southeast 454 522 31,700 -1,080 Descending Indianapolis Center
07:04PM 37.6794 -85.2564 151° Southeast 453 521 31,000 -360 Descending Indianapolis Center
07:05PM 37.5683 -85.1797 151° Southeast 453 521 31,000  Level Indianapolis Center
07:06PM 37.4386 -85.0914 152° Southeast 456 525 31,000  Level Indianapolis Center
07:07PM 37.3289 -85.0142 151° Southeast 452 520 31,000 -240 Level Indianapolis Center
07:08PM 37.2169 -84.9383 152° Southeast 457 526 30,600 -780 Descending Indianapolis Center
07:09PM 37.1056 -84.8625 151° Southeast 455 524 29,400 -1,860 Descending Indianapolis Center
07:10PM 36.9811 -84.7781 152° Southeast 453 521 26,800 -2,460 Descending Indianapolis Center
07:11PM 36.8669 -84.6992 151° Southeast 462 532 24,400 -2,340 Descending Indianapolis Center
07:12PM 36.7581 -84.6258 152° Southeast 451 519 22,000 -2,280 Descending Indianapolis Center
07:13PM 36.6511 -84.5536 152° Southeast 437 503 19,700 -2,340 Descending Indianapolis Center
07:14PM 36.5431 -84.4811 152° Southeast 429 494 17,200 -2,340 Descending Indianapolis Center
07:16PM 36.4411 -84.4125 152° Southeast 427 491 14,900 -2,340 Descending Indianapolis Center
07:17PM 36.3394 -84.3442 152° Southeast 417 480 12,500 -1,980 Descending Indianapolis Center
07:18PM 36.2375 -84.2808 153° Southeast 415 478 11,000 -960 Descending Atlanta Center
07:19PM 36.1458 -84.2186 151° Southeast 402 463 10,600 -600 Descending Atlanta Center
07:20PM 36.0728 -84.1569 146° Southeast 356 410 9,800 -1,020 Descending Atlanta Center
07:21PM 36.0228 -84.0850 131° Southeast 302 348 8,600 -1,440 Descending Atlanta Center
07:22PM 36.0000 -83.9950 107° East 276 318 7,000 -1,560 Descending Atlanta Center
07:23PM 35.9811 -83.9131 106° East 263 303 5,500 -1,200 Descending Atlanta Center
07:24PM 35.9558 -83.8489 116° Southeast 234 269 4,600 -900 Descending Atlanta Center
07:25PM 35.9142 -83.8669 199° South 133 153 3,800 -900 Descending Atlanta Center
07:26PM 35.8767 -83.9131 225° Southwest 131 151 2,800 -1,020 Descending Atlanta Center
07:28PM 35.8000 -83.9833 141° Southeast  Level FlightAware Approximate
07:35PM 35.8110 -83.9940 141° Southeast  Level Estimated
07:36PM 35.8110 -83.9940 141° Southeast  Level Estimated